sensor_id;sensor_type;location;lat;lon;timestamp;pressure;altitude;pressure_sealevel;temperature;humidity
63339;BME280;47485;51.378;-1.342;2023-03-14T00:00:30;97349.97;;;4.58;51.40
63339;BME280;47485;51.378;-1.342;2023-03-14T00:02:56;97361.03;;;5.18;53.19
63339;BME280;47485;51.378;-1.342;2023-03-14T00:05:23;97365.69;;;3.95;55.50
63339;BME280;47485;51.378;-1.342;2023-03-14T00:07:50;97375.04;;;3.70;56.77
63339;BME280;47485;51.378;-1.342;2023-03-14T00:10:17;97466.77;;;1.20;58.78
63339;BME280;47485;51.378;-1.342;2023-03-14T00:12:44;97474.85;;;2.23;57.99
63339;BME280;47485;51.378;-1.342;2023-03-14T00:15:12;97479.77;;;1.22;57.22
63339;BME280;47485;51.378;-1.342;2023-03-14T00:17:39;97490.61;;;-1.76;60.23
63339;BME280;47485;51.378;-1.342;2023-03-14T00:20:07;97490.15;;;1.15;53.57
63339;BME280;47485;51.378;-1.342;2023-03-14T00:22:35;97508.66;;;0.05;54.11
63339;BME280;47485;51.378;-1.342;2023-03-14T00:25:04;97518.50;;;-1.36;56.47
63339;BME280;47485;51.378;-1.342;2023-03-14T00:27:31;97521.04;;;0.80;54.49
63339;BME280;47485;51.378;-1.342;2023-03-14T00:29:58;97530.72;;;0.49;54.23
63339;BME280;47485;51.378;-1.342;2023-03-14T00:32:25;97527.68;;;-0.75;55.54
63339;BME280;47485;51.378;-1.342;2023-03-14T00:34:52;97536.05;;;-0.22;54.58
63339;BME280;47485;51.378;-1.342;2023-03-14T00:37:18;97544.17;;;0.16;55.36
63339;BME280;47485;51.378;-1.342;2023-03-14T00:39:45;97554.66;;;-0.76;54.97
63339;BME280;47485;51.378;-1.342;2023-03-14T00:42:12;97570.49;;;0.53;54.86
63339;BME280;47485;51.378;-1.342;2023-03-14T00:44:39;97578.61;;;0.45;53.40
63339;BME280;47485;51.378;-1.342;2023-03-14T00:47:07;97587.56;;;-0.18;52.88
63339;BME280;47485;51.378;-1.342;2023-03-14T00:49:34;97593.87;;;1.29;51.24
63339;BME280;47485;51.378;-1.342;2023-03-14T00:52:01;97605.14;;;1.73;50.19
63339;BME280;47485;51.378;-1.342;2023-03-14T00:54:28;97609.98;;;2.28;49.34
63339;BME280;47485;51.378;-1.342;2023-03-14T00:56:55;97623.96;;;1.11;51.08
63339;BME280;47485;51.378;-1.342;2023-03-14T00:59:22;97624.21;;;0.68;49.99
63339;BME280;47485;51.378;-1.342;2023-03-14T01:01:49;97632.86;;;0.98;47.55
63339;BME280;47485;51.378;-1.342;2023-03-14T01:04:16;97644.29;;;0.60;50.14
63339;BME280;47485;51.378;-1.342;2023-03-14T01:06:43;97648.44;;;1.67;47.67
63339;BME280;47485;51.378;-1.342;2023-03-14T01:09:09;97659.47;;;2.01;48.32
63339;BME280;47485;51.378;-1.342;2023-03-14T01:11:36;97668.84;;;1.71;46.80
63339;BME280;47485;51.378;-1.342;2023-03-14T01:14:03;97678.27;;;1.10;48.78
63339;BME280;47485;51.378;-1.342;2023-03-14T01:16:32;97686.13;;;-1.03;52.71
63339;BME280;47485;51.378;-1.342;2023-03-14T01:19:05;97692.80;;;0.43;50.14
63339;BME280;47485;51.378;-1.342;2023-03-14T01:21:33;97698.51;;;0.40;49.52
63339;BME280;47485;51.378;-1.342;2023-03-14T01:24:04;97698.35;;;0.40;50.21
63339;BME280;47485;51.378;-1.342;2023-03-14T01:26:33;97713.50;;;0.12;50.78
63339;BME280;47485;51.378;-1.342;2023-03-14T01:29:00;97721.80;;;-0.48;51.31
63339;BME280;47485;51.378;-1.342;2023-03-14T01:31:27;97724.36;;;0.28;50.52
63339;BME280;47485;51.378;-1.342;2023-03-14T01:33:54;97731.92;;;1.69;47.21
63339;BME280;47485;51.378;-1.342;2023-03-14T01:36:22;97739.10;;;1.32;49.32
63339;BME280;47485;51.378;-1.342;2023-03-14T01:38:49;97752.56;;;0.59;49.46
63339;BME280;47485;51.378;-1.342;2023-03-14T01:41:19;97760.07;;;-0.50;50.40
63339;BME280;47485;51.378;-1.342;2023-03-14T01:43:46;97760.99;;;1.32;49.69
63339;BME280;47485;51.378;-1.342;2023-03-14T01:46:25;97774.28;;;-0.97;50.76
63339;BME280;47485;51.378;-1.342;2023-03-14T01:48:57;97780.62;;;0.04;50.07
63339;BME280;47485;51.378;-1.342;2023-03-14T01:51:35;97788.06;;;0.95;50.19
63339;BME280;47485;51.378;-1.342;2023-03-14T01:54:10;97793.06;;;0.68;49.71
63339;BME280;47485;51.378;-1.342;2023-03-14T01:56:39;97807.47;;;-0.41;49.53
63339;BME280;47485;51.378;-1.342;2023-03-14T01:59:10;97811.24;;;-1.62;51.76
63339;BME280;47485;51.378;-1.342;2023-03-14T02:01:38;97837.70;;;-0.41;52.51
63339;BME280;47485;51.378;-1.342;2023-03-14T02:04:08;97836.33;;;-0.75;49.64
63339;BME280;47485;51.378;-1.342;2023-03-14T02:06:46;97847.03;;;-0.20;51.14
63339;BME280;47485;51.378;-1.342;2023-03-14T02:09:13;97849.62;;;0.41;48.60
63339;BME280;47485;51.378;-1.342;2023-03-14T02:11:41;97857.73;;;0.10;49.29
63339;BME280;47485;51.378;-1.342;2023-03-14T02:14:15;97867.77;;;-0.74;49.33
63339;BME280;47485;51.378;-1.342;2023-03-14T02:16:46;97886.88;;;-1.14;53.68
63339;BME280;47485;51.378;-1.342;2023-03-14T02:19:14;97894.08;;;-0.56;54.15
63339;BME280;47485;51.378;-1.342;2023-03-14T02:21:52;97904.17;;;-1.75;53.42
63339;BME280;47485;51.378;-1.342;2023-03-14T02:24:25;97910.47;;;-0.51;54.35
63339;BME280;47485;51.378;-1.342;2023-03-14T02:27:07;97918.45;;;-1.94;54.82
63339;BME280;47485;51.378;-1.342;2023-03-14T02:29:39;97925.22;;;-1.82;53.52
63339;BME280;47485;51.378;-1.342;2023-03-14T02:32:08;97929.11;;;-2.44;51.44
63339;BME280;47485;51.378;-1.342;2023-03-14T02:34:36;97935.03;;;-2.44;51.21
63339;BME280;47485;51.378;-1.342;2023-03-14T02:37:04;97942.22;;;-2.32;51.01
63339;BME280;47485;51.378;-1.342;2023-03-14T02:39:36;97949.32;;;-3.05;50.82
63339;BME280;47485;51.378;-1.342;2023-03-14T02:42:04;97958.08;;;-3.00;49.54
63339;BME280;47485;51.378;-1.342;2023-03-14T02:44:30;97970.62;;;-2.87;47.83
63339;BME280;47485;51.378;-1.342;2023-03-14T02:46:57;97983.00;;;-1.78;49.27
63339;BME280;47485;51.378;-1.342;2023-03-14T02:49:24;97994.28;;;-3.17;49.41
63339;BME280;47485;51.378;-1.342;2023-03-14T02:51:52;97995.60;;;-2.20;48.50
63339;BME280;47485;51.378;-1.342;2023-03-14T02:54:24;97997.30;;;-1.38;46.65
63339;BME280;47485;51.378;-1.342;2023-03-14T02:57:03;98007.93;;;-2.69;46.69
63339;BME280;47485;51.378;-1.342;2023-03-14T02:59:29;98014.29;;;-2.34;46.33
63339;BME280;47485;51.378;-1.342;2023-03-14T03:01:56;98018.45;;;-2.82;46.26
63339;BME280;47485;51.378;-1.342;2023-03-14T03:04:26;98021.87;;;-2.45;45.28
63339;BME280;47485;51.378;-1.342;2023-03-14T03:06:53;98030.63;;;-1.81;46.27
63339;BME280;47485;51.378;-1.342;2023-03-14T03:09:20;98034.23;;;-3.24;46.64
63339;BME280;47485;51.378;-1.342;2023-03-14T03:11:47;98039.31;;;-2.37;47.11
63339;BME280;47485;51.378;-1.342;2023-03-14T03:14:13;98044.22;;;-3.16;46.61
63339;BME280;47485;51.378;-1.342;2023-03-14T03:16:46;98046.96;;;-2.07;45.39
63339;BME280;47485;51.378;-1.342;2023-03-14T03:19:12;98063.80;;;-2.97;47.47
63339;BME280;47485;51.378;-1.342;2023-03-14T03:21:39;98064.25;;;-2.70;47.88
63339;BME280;47485;51.378;-1.342;2023-03-14T03:24:07;98064.76;;;-3.11;46.04
63339;BME280;47485;51.378;-1.342;2023-03-14T03:26:34;98075.96;;;-2.08;46.05
63339;BME280;47485;51.378;-1.342;2023-03-14T03:29:01;98075.92;;;-3.47;45.86
63339;BME280;47485;51.378;-1.342;2023-03-14T03:31:28;98086.54;;;-1.78;45.02
63339;BME280;47485;51.378;-1.342;2023-03-14T03:33:57;98083.37;;;-3.03;45.06
63339;BME280;47485;51.378;-1.342;2023-03-14T03:36:25;98098.14;;;-2.24;45.56
63339;BME280;47485;51.378;-1.342;2023-03-14T03:38:52;98097.54;;;-2.97;45.00
63339;BME280;47485;51.378;-1.342;2023-03-14T03:41:19;98094.57;;;-2.97;44.34
63339;BME280;47485;51.378;-1.342;2023-03-14T03:43:46;98096.59;;;-3.07;46.63
63339;BME280;47485;51.378;-1.342;2023-03-14T03:46:13;98105.45;;;-2.83;46.11
63339;BME280;47485;51.378;-1.342;2023-03-14T03:48:39;98125.12;;;-2.71;47.91
63339;BME280;47485;51.378;-1.342;2023-03-14T03:51:12;98122.07;;;-2.64;47.00
63339;BME280;47485;51.378;-1.342;2023-03-14T03:53:39;98123.89;;;-2.91;45.99
63339;BME280;47485;51.378;-1.342;2023-03-14T03:56:07;98128.00;;;-2.34;46.35
63339;BME280;47485;51.378;-1.342;2023-03-14T03:58:34;98124.92;;;-2.68;45.32
63339;BME280;47485;51.378;-1.342;2023-03-14T04:01:03;98132.04;;;-2.40;45.02
63339;BME280;47485;51.378;-1.342;2023-03-14T04:03:30;98137.11;;;-2.64;43.57
63339;BME280;47485;51.378;-1.342;2023-03-14T04:05:59;98140.78;;;-1.43;41.96
63339;BME280;47485;51.378;-1.342;2023-03-14T04:08:26;98155.08;;;-1.00;41.74
63339;BME280;47485;51.378;-1.342;2023-03-14T04:10:55;98155.27;;;-1.94;42.82
63339;BME280;47485;51.378;-1.342;2023-03-14T04:13:22;98155.38;;;-1.44;42.32
63339;BME280;47485;51.378;-1.342;2023-03-14T04:15:49;98151.52;;;-0.73;42.29
63339;BME280;47485;51.378;-1.342;2023-03-14T04:18:16;98151.05;;;-2.59;43.27
63339;BME280;47485;51.378;-1.342;2023-03-14T04:20:43;98160.06;;;-1.36;42.82
63339;BME280;47485;51.378;-1.342;2023-03-14T04:23:10;98163.28;;;-3.21;44.23
63339;BME280;47485;51.378;-1.342;2023-03-14T04:25:37;98174.19;;;-2.04;43.16
63339;BME280;47485;51.378;-1.342;2023-03-14T04:28:04;98173.79;;;-1.89;45.51
63339;BME280;47485;51.378;-1.342;2023-03-14T04:30:31;98179.60;;;-2.91;44.19
63339;BME280;47485;51.378;-1.342;2023-03-14T04:32:57;98189.68;;;-1.69;42.83
63339;BME280;47485;51.378;-1.342;2023-03-14T04:35:24;98188.80;;;-1.61;41.61
63339;BME280;47485;51.378;-1.342;2023-03-14T04:37:51;98191.42;;;-1.34;41.19
63339;BME280;47485;51.378;-1.342;2023-03-14T04:40:18;98194.89;;;-2.09;42.07
63339;BME280;47485;51.378;-1.342;2023-03-14T04:42:44;98199.79;;;-2.69;43.55
63339;BME280;47485;51.378;-1.342;2023-03-14T04:45:11;98206.06;;;-1.54;41.78
63339;BME280;47485;51.378;-1.342;2023-03-14T04:47:38;98207.16;;;-1.63;43.55
63339;BME280;47485;51.378;-1.342;2023-03-14T04:50:06;98217.91;;;-1.01;42.23
63339;BME280;47485;51.378;-1.342;2023-03-14T04:52:34;98226.63;;;-1.71;43.67
63339;BME280;47485;51.378;-1.342;2023-03-14T04:55:00;98236.90;;;-1.33;43.74
63339;BME280;47485;51.378;-1.342;2023-03-14T04:57:27;98242.52;;;-1.83;43.41
63339;BME280;47485;51.378;-1.342;2023-03-14T04:59:54;98254.21;;;-2.85;42.95
63339;BME280;47485;51.378;-1.342;2023-03-14T05:02:21;98257.47;;;-0.94;41.32
63339;BME280;47485;51.378;-1.342;2023-03-14T05:04:48;98264.49;;;0.04;40.00
63339;BME280;47485;51.378;-1.342;2023-03-14T05:07:15;98272.02;;;-0.56;39.47
63339;BME280;47485;51.378;-1.342;2023-03-14T05:09:42;98276.42;;;-0.51;39.48
63339;BME280;47485;51.378;-1.342;2023-03-14T05:12:09;98279.20;;;-0.64;39.81
63339;BME280;47485;51.378;-1.342;2023-03-14T05:14:35;98287.03;;;0.30;37.76
63339;BME280;47485;51.378;-1.342;2023-03-14T05:17:02;98290.07;;;-1.26;38.14
63339;BME280;47485;51.378;-1.342;2023-03-14T05:19:29;98296.52;;;-0.32;39.55
63339;BME280;47485;51.378;-1.342;2023-03-14T05:21:56;98300.33;;;0.05;40.56
63339;BME280;47485;51.378;-1.342;2023-03-14T05:24:23;98302.18;;;-0.46;40.02
63339;BME280;47485;51.378;-1.342;2023-03-14T05:26:49;98310.14;;;-0.63;40.24
63339;BME280;47485;51.378;-1.342;2023-03-14T05:29:16;98307.67;;;-1.54;40.55
63339;BME280;47485;51.378;-1.342;2023-03-14T05:31:43;98314.55;;;-0.73;41.40
63339;BME280;47485;51.378;-1.342;2023-03-14T05:34:10;98321.39;;;-1.68;42.06
63339;BME280;47485;51.378;-1.342;2023-03-14T05:36:38;98321.46;;;-2.24;43.00
63339;BME280;47485;51.378;-1.342;2023-03-14T05:39:05;98332.62;;;-2.03;43.87
63339;BME280;47485;51.378;-1.342;2023-03-14T05:41:33;98337.13;;;-2.44;43.54
63339;BME280;47485;51.378;-1.342;2023-03-14T05:43:59;98339.40;;;-1.65;43.07
63339;BME280;47485;51.378;-1.342;2023-03-14T05:46:26;98334.44;;;-1.60;42.17
63339;BME280;47485;51.378;-1.342;2023-03-14T05:48:53;98342.84;;;-0.99;42.26
63339;BME280;47485;51.378;-1.342;2023-03-14T05:51:20;98349.04;;;-1.14;43.23
63339;BME280;47485;51.378;-1.342;2023-03-14T05:53:47;98361.14;;;-2.67;43.99
63339;BME280;47485;51.378;-1.342;2023-03-14T05:56:14;98360.72;;;-0.88;42.74
63339;BME280;47485;51.378;-1.342;2023-03-14T05:58:42;98363.36;;;0.02;40.95
63339;BME280;47485;51.378;-1.342;2023-03-14T06:01:09;98366.56;;;-0.56;41.11
63339;BME280;47485;51.378;-1.342;2023-03-14T06:03:36;98366.37;;;0.38;41.82
63339;BME280;47485;51.378;-1.342;2023-03-14T06:06:03;98377.89;;;-1.31;42.27
63339;BME280;47485;51.378;-1.342;2023-03-14T06:08:30;98388.77;;;-1.31;43.16
63339;BME280;47485;51.378;-1.342;2023-03-14T06:10:57;98392.27;;;-2.08;43.73
63339;BME280;47485;51.378;-1.342;2023-03-14T06:13:24;98395.46;;;-1.91;42.55
63339;BME280;47485;51.378;-1.342;2023-03-14T06:15:51;98401.32;;;-0.12;41.49
63339;BME280;47485;51.378;-1.342;2023-03-14T06:18:18;98414.59;;;-2.05;42.86
63339;BME280;47485;51.378;-1.342;2023-03-14T06:20:45;98420.81;;;-1.81;43.24
63339;BME280;47485;51.378;-1.342;2023-03-14T06:23:11;98422.40;;;-1.13;40.60
63339;BME280;47485;51.378;-1.342;2023-03-14T06:25:38;98437.11;;;-2.01;40.95
63339;BME280;47485;51.378;-1.342;2023-03-14T06:28:05;98441.21;;;-0.77;38.84
63339;BME280;47485;51.378;-1.342;2023-03-14T06:30:33;98444.69;;;-1.29;39.62
63339;BME280;47485;51.378;-1.342;2023-03-14T06:32:59;98456.06;;;-1.42;40.61
63339;BME280;47485;51.378;-1.342;2023-03-14T06:35:26;98464.24;;;-0.81;41.22
63339;BME280;47485;51.378;-1.342;2023-03-14T06:37:54;98463.11;;;-1.20;41.40
63339;BME280;47485;51.378;-1.342;2023-03-14T06:40:21;98479.30;;;-1.66;42.01
63339;BME280;47485;51.378;-1.342;2023-03-14T06:42:49;98477.49;;;-1.58;39.78
63339;BME280;47485;51.378;-1.342;2023-03-14T06:45:16;98493.32;;;-0.09;40.16
63339;BME280;47485;51.378;-1.342;2023-03-14T06:47:43;98501.13;;;-0.16;41.11
63339;BME280;47485;51.378;-1.342;2023-03-14T06:50:10;98509.74;;;-2.30;43.67
63339;BME280;47485;51.378;-1.342;2023-03-14T06:52:37;98515.42;;;-1.87;43.88
63339;BME280;47485;51.378;-1.342;2023-03-14T06:55:06;98517.63;;;-2.56;44.72
63339;BME280;47485;51.378;-1.342;2023-03-14T06:57:33;98526.08;;;-3.14;45.63
63339;BME280;47485;51.378;-1.342;2023-03-14T07:00:00;98528.89;;;-2.49;45.10
63339;BME280;47485;51.378;-1.342;2023-03-14T07:02:32;98533.91;;;-2.98;45.68
63339;BME280;47485;51.378;-1.342;2023-03-14T07:04:59;98534.70;;;-2.00;44.49
63339;BME280;47485;51.378;-1.342;2023-03-14T07:07:26;98540.81;;;-3.24;45.94
63339;BME280;47485;51.378;-1.342;2023-03-14T07:09:53;98546.44;;;-3.29;46.58
63339;BME280;47485;51.378;-1.342;2023-03-14T07:12:20;98555.93;;;-3.66;48.19
63339;BME280;47485;51.378;-1.342;2023-03-14T07:14:47;98566.31;;;-2.65;46.35
63339;BME280;47485;51.378;-1.342;2023-03-14T07:17:14;98570.05;;;-2.55;44.88
63339;BME280;47485;51.378;-1.342;2023-03-14T07:19:41;98586.38;;;-3.51;47.03
63339;BME280;47485;51.378;-1.342;2023-03-14T07:22:13;98596.68;;;-2.75;47.64
63339;BME280;47485;51.378;-1.342;2023-03-14T07:24:40;98602.16;;;-3.56;47.78
63339;BME280;47485;51.378;-1.342;2023-03-14T07:27:08;98610.49;;;-3.04;47.09
63339;BME280;47485;51.378;-1.342;2023-03-14T07:29:40;98616.30;;;-1.88;46.17
63339;BME280;47485;51.378;-1.342;2023-03-14T07:32:08;98621.01;;;-1.11;45.49
63339;BME280;47485;51.378;-1.342;2023-03-14T07:34:35;98634.94;;;-2.00;45.19
63339;BME280;47485;51.378;-1.342;2023-03-14T07:37:02;98645.91;;;-2.84;46.65
63339;BME280;47485;51.378;-1.342;2023-03-14T07:39:29;98658.94;;;-1.95;46.18
63339;BME280;47485;51.378;-1.342;2023-03-14T07:41:56;98669.60;;;-2.31;44.94
63339;BME280;47485;51.378;-1.342;2023-03-14T07:44:22;98673.30;;;-1.44;42.67
63339;BME280;47485;51.378;-1.342;2023-03-14T07:46:49;98686.75;;;-0.25;42.25
63339;BME280;47485;51.378;-1.342;2023-03-14T07:49:16;98689.06;;;-1.37;41.75
63339;BME280;47485;51.378;-1.342;2023-03-14T07:51:43;98704.74;;;-1.14;44.31
63339;BME280;47485;51.378;-1.342;2023-03-14T07:54:10;98708.96;;;-0.70;43.82
63339;BME280;47485;51.378;-1.342;2023-03-14T07:56:37;98715.42;;;-2.11;44.42
63339;BME280;47485;51.378;-1.342;2023-03-14T07:59:04;98723.83;;;-1.89;45.03
63339;BME280;47485;51.378;-1.342;2023-03-14T08:01:31;98730.78;;;-1.03;45.80
63339;BME280;47485;51.378;-1.342;2023-03-14T08:03:58;98744.33;;;-3.60;45.22
63339;BME280;47485;51.378;-1.342;2023-03-14T08:06:24;98748.31;;;-1.41;42.37
63339;BME280;47485;51.378;-1.342;2023-03-14T08:08:51;98756.06;;;-1.36;42.98
63339;BME280;47485;51.378;-1.342;2023-03-14T08:11:18;98769.77;;;-2.67;44.15
63339;BME280;47485;51.378;-1.342;2023-03-14T08:13:45;98790.82;;;-1.38;42.33
63339;BME280;47485;51.378;-1.342;2023-03-14T08:16:12;98800.74;;;-1.30;43.29
63339;BME280;47485;51.378;-1.342;2023-03-14T08:18:39;98808.83;;;-2.23;43.26
63339;BME280;47485;51.378;-1.342;2023-03-14T08:21:07;98823.67;;;-2.91;44.54
63339;BME280;47485;51.378;-1.342;2023-03-14T08:23:33;98829.40;;;-0.89;44.01
63339;BME280;47485;51.378;-1.342;2023-03-14T08:26:00;98836.61;;;-0.07;44.68
63339;BME280;47485;51.378;-1.342;2023-03-14T08:28:27;98846.27;;;-0.87;44.37
63339;BME280;47485;51.378;-1.342;2023-03-14T08:30:54;98851.33;;;-1.06;43.53
63339;BME280;47485;51.378;-1.342;2023-03-14T08:33:22;98859.21;;;-1.15;45.97
63339;BME280;47485;51.378;-1.342;2023-03-14T08:35:51;98866.43;;;-2.49;45.39
63339;BME280;47485;51.378;-1.342;2023-03-14T08:38:18;98881.14;;;-1.64;46.83
63339;BME280;47485;51.378;-1.342;2023-03-14T08:40:45;98890.81;;;-2.40;47.43
63339;BME280;47485;51.378;-1.342;2023-03-14T08:43:12;98897.87;;;-0.38;43.27
63339;BME280;47485;51.378;-1.342;2023-03-14T08:45:39;98907.90;;;-0.01;43.34
63339;BME280;47485;51.378;-1.342;2023-03-14T08:48:06;98913.77;;;-2.13;44.83
63339;BME280;47485;51.378;-1.342;2023-03-14T08:50:33;98931.15;;;-2.13;47.04
63339;BME280;47485;51.378;-1.342;2023-03-14T08:53:00;98934.29;;;-4.29;47.20
63339;BME280;47485;51.378;-1.342;2023-03-14T08:55:27;98934.28;;;-0.61;43.19
63339;BME280;47485;51.378;-1.342;2023-03-14T08:57:54;98939.77;;;-0.41;42.21
63339;BME280;47485;51.378;-1.342;2023-03-14T09:00:21;98952.31;;;-3.04;45.12
63339;BME280;47485;51.378;-1.342;2023-03-14T09:02:48;98960.39;;;-1.89;43.10
63339;BME280;47485;51.378;-1.342;2023-03-14T09:05:16;98966.61;;;-1.88;43.85
63339;BME280;47485;51.378;-1.342;2023-03-14T09:07:42;98982.97;;;-4.83;48.02
63339;BME280;47485;51.378;-1.342;2023-03-14T09:10:10;98990.88;;;-5.42;47.38
63339;BME280;47485;51.378;-1.342;2023-03-14T09:12:37;98995.31;;;-0.91;44.18
63339;BME280;47485;51.378;-1.342;2023-03-14T09:15:05;99004.67;;;-4.15;46.73
63339;BME280;47485;51.378;-1.342;2023-03-14T09:17:31;99020.15;;;-6.06;48.69
63339;BME280;47485;51.378;-1.342;2023-03-14T09:19:58;99028.17;;;-6.30;47.88
63339;BME280;47485;51.378;-1.342;2023-03-14T09:22:25;99040.67;;;-6.31;49.81
63339;BME280;47485;51.378;-1.342;2023-03-14T09:24:52;99044.57;;;-2.52;44.46
63339;BME280;47485;51.378;-1.342;2023-03-14T09:27:19;99053.66;;;-2.65;43.79
63339;BME280;47485;51.378;-1.342;2023-03-14T09:29:46;99067.98;;;-4.47;46.97
63339;BME280;47485;51.378;-1.342;2023-03-14T09:32:13;99065.40;;;-1.35;40.69
63339;BME280;47485;51.378;-1.342;2023-03-14T09:34:40;99078.53;;;-3.38;42.14
63339;BME280;47485;51.378;-1.342;2023-03-14T09:37:08;99085.51;;;-1.24;39.81
63339;BME280;47485;51.378;-1.342;2023-03-14T09:39:34;99093.29;;;-2.01;40.85
63339;BME280;47485;51.378;-1.342;2023-03-14T09:42:04;99098.09;;;-2.91;38.73
63339;BME280;47485;51.378;-1.342;2023-03-14T09:44:33;99113.93;;;-3.78;42.06
63339;BME280;47485;51.378;-1.342;2023-03-14T09:47:06;99118.69;;;-1.76;40.72
63339;BME280;47485;51.378;-1.342;2023-03-14T09:49:36;99123.82;;;-0.25;37.89
63339;BME280;47485;51.378;-1.342;2023-03-14T09:52:11;99131.54;;;-2.70;39.92
63339;BME280;47485;51.378;-1.342;2023-03-14T09:54:43;99136.83;;;-3.80;38.93
63339;BME280;47485;51.378;-1.342;2023-03-14T09:57:13;99137.42;;;-1.37;36.81
63339;BME280;47485;51.378;-1.342;2023-03-14T09:59:42;99140.21;;;0.15;38.06
63339;BME280;47485;51.378;-1.342;2023-03-14T10:02:17;99148.32;;;-3.29;39.34
63339;BME280;47485;51.378;-1.342;2023-03-14T10:04:45;99153.97;;;0.45;36.43
63339;BME280;47485;51.378;-1.342;2023-03-14T10:07:15;99169.23;;;-1.67;36.90
63339;BME280;47485;51.378;-1.342;2023-03-14T10:09:44;99178.26;;;-3.80;39.88
63339;BME280;47485;51.378;-1.342;2023-03-14T10:12:11;99180.59;;;-2.03;36.90
63339;BME280;47485;51.378;-1.342;2023-03-14T10:14:45;99183.78;;;-2.63;37.93
63339;BME280;47485;51.378;-1.342;2023-03-14T10:17:13;99185.62;;;-2.31;37.63
63339;BME280;47485;51.378;-1.342;2023-03-14T10:19:51;99188.24;;;0.22;37.03
63339;BME280;47485;51.378;-1.342;2023-03-14T10:22:18;99195.23;;;0.21;34.66
63339;BME280;47485;51.378;-1.342;2023-03-14T10:24:46;99200.20;;;0.42;34.73
63339;BME280;47485;51.378;-1.342;2023-03-14T10:27:19;99205.19;;;-0.61;35.45
63339;BME280;47485;51.378;-1.342;2023-03-14T10:29:53;99212.08;;;-0.36;35.69
63339;BME280;47485;51.378;-1.342;2023-03-14T10:32:21;99224.79;;;-0.49;37.02
63339;BME280;47485;51.378;-1.342;2023-03-14T10:35:05;99229.01;;;-1.03;36.16
63339;BME280;47485;51.378;-1.342;2023-03-14T10:37:33;99236.71;;;-2.59;36.50
63339;BME280;47485;51.378;-1.342;2023-03-14T10:40:01;99242.11;;;-0.64;35.16
63339;BME280;47485;51.378;-1.342;2023-03-14T10:42:30;99247.66;;;0.48;34.11
63339;BME280;47485;51.378;-1.342;2023-03-14T10:45:01;99256.20;;;-2.94;34.49
63339;BME280;47485;51.378;-1.342;2023-03-14T10:47:29;99255.39;;;-2.90;35.78
63339;BME280;47485;51.378;-1.342;2023-03-14T10:49:57;99252.46;;;-0.31;34.26
63339;BME280;47485;51.378;-1.342;2023-03-14T10:52:33;99251.32;;;1.16;31.73
63339;BME280;47485;51.378;-1.342;2023-03-14T10:55:03;99259.18;;;2.17;31.32
63339;BME280;47485;51.378;-1.342;2023-03-14T10:57:38;99267.09;;;3.51;30.12
63339;BME280;47485;51.378;-1.342;2023-03-14T11:00:09;99268.83;;;5.46;28.94
63339;BME280;47485;51.378;-1.342;2023-03-14T11:02:47;99284.61;;;2.53;31.97
63339;BME280;47485;51.378;-1.342;2023-03-14T11:05:25;99286.21;;;1.08;33.74
63339;BME280;47485;51.378;-1.342;2023-03-14T11:07:57;99292.93;;;1.02;32.99
63339;BME280;47485;51.378;-1.342;2023-03-14T11:10:32;99300.02;;;2.74;31.63
63339;BME280;47485;51.378;-1.342;2023-03-14T11:13:11;99308.74;;;1.87;32.63
63339;BME280;47485;51.378;-1.342;2023-03-14T11:15:51;99315.80;;;0.83;34.29
63339;BME280;47485;51.378;-1.342;2023-03-14T11:18:42;99322.71;;;1.55;34.36
63339;BME280;47485;51.378;-1.342;2023-03-14T11:21:15;99323.45;;;-1.15;35.83
63339;BME280;47485;51.378;-1.342;2023-03-14T11:23:52;99330.48;;;2.05;33.84
63339;BME280;47485;51.378;-1.342;2023-03-14T11:26:27;99335.59;;;2.84;31.00
63339;BME280;47485;51.378;-1.342;2023-03-14T11:29:02;99342.67;;;2.52;32.53
63339;BME280;47485;51.378;-1.342;2023-03-14T11:31:32;99351.22;;;3.30;32.28
63339;BME280;47485;51.378;-1.342;2023-03-14T11:34:10;99356.33;;;2.86;32.99
63339;BME280;47485;51.378;-1.342;2023-03-14T11:36:43;99366.05;;;1.67;36.00
63339;BME280;47485;51.378;-1.342;2023-03-14T11:39:15;99373.21;;;1.22;36.93
63339;BME280;47485;51.378;-1.342;2023-03-14T11:41:45;99383.12;;;1.26;35.04
63339;BME280;47485;51.378;-1.342;2023-03-14T11:44:18;99385.92;;;-0.12;35.53
63339;BME280;47485;51.378;-1.342;2023-03-14T11:46:48;99390.58;;;2.10;35.44
63339;BME280;47485;51.378;-1.342;2023-03-14T11:49:24;99398.01;;;-0.49;37.50
63339;BME280;47485;51.378;-1.342;2023-03-14T11:51:56;99399.30;;;2.13;34.96
63339;BME280;47485;51.378;-1.342;2023-03-14T11:54:32;99402.82;;;1.19;36.44
63339;BME280;47485;51.378;-1.342;2023-03-14T11:57:03;99406.79;;;1.39;36.03
63339;BME280;47485;51.378;-1.342;2023-03-14T11:59:37;99406.95;;;1.67;34.62
63339;BME280;47485;51.378;-1.342;2023-03-14T12:02:12;99410.88;;;2.32;34.48
63339;BME280;47485;51.378;-1.342;2023-03-14T12:04:47;99422.10;;;0.00;37.00
63339;BME280;47485;51.378;-1.342;2023-03-14T12:07:19;99425.85;;;-2.29;36.34
63339;BME280;47485;51.378;-1.342;2023-03-14T12:09:48;99427.64;;;1.38;36.42
63339;BME280;47485;51.378;-1.342;2023-03-14T12:12:18;99439.57;;;0.38;38.62
63339;BME280;47485;51.378;-1.342;2023-03-14T12:14:52;99439.01;;;1.45;37.73
63339;BME280;47485;51.378;-1.342;2023-03-14T12:17:22;99443.95;;;-0.95;36.55
63339;BME280;47485;51.378;-1.342;2023-03-14T12:20:01;99440.12;;;1.67;36.94
63339;BME280;47485;51.378;-1.342;2023-03-14T12:22:30;99441.74;;;0.94;38.58
63339;BME280;47485;51.378;-1.342;2023-03-14T12:25:02;99440.90;;;-0.59;36.31
63339;BME280;47485;51.378;-1.342;2023-03-14T12:27:43;99438.19;;;1.68;33.73
63339;BME280;47485;51.378;-1.342;2023-03-14T12:30:23;99445.63;;;1.53;34.94
63339;BME280;47485;51.378;-1.342;2023-03-14T12:34:01;99442.71;;;2.08;34.06
63339;BME280;47485;51.378;-1.342;2023-03-14T12:37:45;99446.31;;;1.49;34.46
63339;BME280;47485;51.378;-1.342;2023-03-14T12:40:19;99447.40;;;1.98;34.30
63339;BME280;47485;51.378;-1.342;2023-03-14T12:42:56;99454.34;;;0.19;33.88
63339;BME280;47485;51.378;-1.342;2023-03-14T12:45:27;99454.82;;;1.19;34.85
63339;BME280;47485;51.378;-1.342;2023-03-14T12:48:00;99455.22;;;1.95;34.56
63339;BME280;47485;51.378;-1.342;2023-03-14T12:50:33;99451.41;;;1.70;31.36
63339;BME280;47485;51.378;-1.342;2023-03-14T12:54:40;99452.53;;;3.73;31.23
63339;BME280;47485;51.378;-1.342;2023-03-14T12:57:21;99464.03;;;3.47;29.25
63339;BME280;47485;51.378;-1.342;2023-03-14T12:59:55;99458.64;;;1.80;28.22
63339;BME280;47485;51.378;-1.342;2023-03-14T13:02:25;99462.80;;;1.76;30.01
63339;BME280;47485;51.378;-1.342;2023-03-14T13:05:00;99469.71;;;2.27;29.95